sensor_id;sensor_type;location;lat;lon;timestamp;P1;durP1;ratioP1;P2;durP2;ratioP2
40847;SDS011;26570;50.962;5.340;2022-11-13T00:01:41;60.03;;;41.77;;
40847;SDS011;26570;50.962;5.340;2022-11-13T00:04:26;52.83;;;37.33;;
40847;SDS011;26570;50.962;5.340;2022-11-13T00:07:11;59.47;;;37.27;;
40847;SDS011;26570;50.962;5.340;2022-11-13T00:09:57;49.00;;;32.47;;
40847;SDS011;26570;50.962;5.340;2022-11-13T00:12:42;44.57;;;31.50;;
40847;SDS011;26570;50.962;5.340;2022-11-13T00:15:27;55.57;;;36.17;;
40847;SDS011;26570;50.962;5.340;2022-11-13T00:18:13;45.83;;;32.77;;
40847;SDS011;26570;50.962;5.340;2022-11-13T00:21:03;57.23;;;37.13;;
40847;SDS011;26570;50.962;5.340;2022-11-13T00:23:50;49.03;;;32.43;;
40847;SDS011;26570;50.962;5.340;2022-11-13T00:26:36;52.77;;;36.50;;
40847;SDS011;26570;50.962;5.340;2022-11-13T00:29:23;50.97;;;34.97;;
40847;SDS011;26570;50.962;5.340;2022-11-13T00:32:09;44.27;;;30.07;;
40847;SDS011;26570;50.962;5.340;2022-11-13T00:34:55;41.57;;;28.17;;
40847;SDS011;26570;50.962;5.340;2022-11-13T00:37:40;51.83;;;33.97;;
40847;SDS011;26570;50.962;5.340;2022-11-13T00:40:26;45.80;;;31.30;;
40847;SDS011;26570;50.962;5.340;2022-11-13T00:43:13;50.37;;;34.93;;
40847;SDS011;26570;50.962;5.340;2022-11-13T00:45:58;42.03;;;28.73;;
40847;SDS011;26570;50.962;5.340;2022-11-13T00:48:44;48.40;;;32.73;;
40847;SDS011;26570;50.962;5.340;2022-11-13T00:51:29;44.23;;;30.77;;
40847;SDS011;26570;50.962;5.340;2022-11-13T00:54:15;40.10;;;28.03;;
40847;SDS011;26570;50.962;5.340;2022-11-13T00:57:01;48.00;;;31.50;;
40847;SDS011;26570;50.962;5.340;2022-11-13T00:59:47;42.90;;;27.10;;
40847;SDS011;26570;50.962;5.340;2022-11-13T01:02:32;40.50;;;28.23;;
40847;SDS011;26570;50.962;5.340;2022-11-13T01:05:17;121.27;;;34.60;;
40847;SDS011;26570;50.962;5.340;2022-11-13T01:08:03;43.40;;;28.90;;
40847;SDS011;26570;50.962;5.340;2022-11-13T01:10:50;43.53;;;27.23;;
40847;SDS011;26570;50.962;5.340;2022-11-13T01:13:36;39.07;;;25.60;;
40847;SDS011;26570;50.962;5.340;2022-11-13T01:16:23;36.67;;;25.90;;
40847;SDS011;26570;50.962;5.340;2022-11-13T01:19:10;42.37;;;29.83;;
40847;SDS011;26570;50.962;5.340;2022-11-13T01:21:56;39.73;;;27.80;;
40847;SDS011;26570;50.962;5.340;2022-11-13T01:24:42;45.77;;;30.30;;
40847;SDS011;26570;50.962;5.340;2022-11-13T01:27:27;54.27;;;33.93;;
40847;SDS011;26570;50.962;5.340;2022-11-13T01:30:13;44.03;;;29.03;;
40847;SDS011;26570;50.962;5.340;2022-11-13T01:32:58;38.43;;;27.30;;
40847;SDS011;26570;50.962;5.340;2022-11-13T01:35:43;35.17;;;22.30;;
40847;SDS011;26570;50.962;5.340;2022-11-13T01:38:29;36.10;;;24.17;;
40847;SDS011;26570;50.962;5.340;2022-11-13T01:41:19;35.10;;;22.83;;
40847;SDS011;26570;50.962;5.340;2022-11-13T01:44:13;33.10;;;22.20;;
40847;SDS011;26570;50.962;5.340;2022-11-13T01:46:59;33.77;;;22.50;;
40847;SDS011;26570;50.962;5.340;2022-11-13T01:49:44;41.97;;;29.10;;
40847;SDS011;26570;50.962;5.340;2022-11-13T01:52:32;32.33;;;21.97;;
40847;SDS011;26570;50.962;5.340;2022-11-13T01:55:22;34.17;;;25.13;;
40847;SDS011;26570;50.962;5.340;2022-11-13T01:58:07;39.30;;;24.53;;
40847;SDS011;26570;50.962;5.340;2022-11-13T02:00:55;30.87;;;23.37;;
40847;SDS011;26570;50.962;5.340;2022-11-13T02:03:41;36.10;;;24.67;;
40847;SDS011;26570;50.962;5.340;2022-11-13T02:06:27;30.37;;;21.17;;
40847;SDS011;26570;50.962;5.340;2022-11-13T02:09:19;34.07;;;22.37;;
40847;SDS011;26570;50.962;5.340;2022-11-13T02:12:09;44.73;;;28.40;;
40847;SDS011;26570;50.962;5.340;2022-11-13T02:14:57;34.00;;;23.20;;
40847;SDS011;26570;50.962;5.340;2022-11-13T02:17:45;28.57;;;21.30;;
40847;SDS011;26570;50.962;5.340;2022-11-13T02:21:12;30.47;;;21.90;;
40847;SDS011;26570;50.962;5.340;2022-11-13T02:24:20;23.57;;;17.20;;
40847;SDS011;26570;50.962;5.340;2022-11-13T02:27:19;24.40;;;18.20;;
40847;SDS011;26570;50.962;5.340;2022-11-13T02:30:21;20.33;;;16.13;;
40847;SDS011;26570;50.962;5.340;2022-11-13T02:33:28;33.30;;;21.40;;
40847;SDS011;26570;50.962;5.340;2022-11-13T02:36:44;28.67;;;21.33;;
40847;SDS011;26570;50.962;5.340;2022-11-13T02:39:30;33.83;;;22.17;;
40847;SDS011;26570;50.962;5.340;2022-11-13T02:42:15;22.83;;;17.03;;
40847;SDS011;26570;50.962;5.340;2022-11-13T02:45:01;25.40;;;17.63;;
40847;SDS011;26570;50.962;5.340;2022-11-13T02:47:47;31.50;;;19.73;;
40847;SDS011;26570;50.962;5.340;2022-11-13T02:50:33;33.97;;;23.27;;
40847;SDS011;26570;50.962;5.340;2022-11-13T02:53:20;34.23;;;23.70;;
40847;SDS011;26570;50.962;5.340;2022-11-13T02:56:06;27.27;;;20.33;;
40847;SDS011;26570;50.962;5.340;2022-11-13T02:58:52;31.30;;;22.40;;
40847;SDS011;26570;50.962;5.340;2022-11-13T03:01:38;31.30;;;20.70;;
40847;SDS011;26570;50.962;5.340;2022-11-13T03:04:24;31.97;;;20.83;;
40847;SDS011;26570;50.962;5.340;2022-11-13T03:07:10;28.07;;;19.13;;
40847;SDS011;26570;50.962;5.340;2022-11-13T03:09:56;30.23;;;19.00;;
40847;SDS011;26570;50.962;5.340;2022-11-13T03:12:42;35.03;;;20.03;;
40847;SDS011;26570;50.962;5.340;2022-11-13T03:15:28;28.87;;;17.90;;
40847;SDS011;26570;50.962;5.340;2022-11-13T03:18:14;27.80;;;18.77;;
40847;SDS011;26570;50.962;5.340;2022-11-13T03:21:04;37.43;;;21.63;;
40847;SDS011;26570;50.962;5.340;2022-11-13T03:23:52;34.80;;;22.57;;
40847;SDS011;26570;50.962;5.340;2022-11-13T03:26:38;32.77;;;21.73;;
40847;SDS011;26570;50.962;5.340;2022-11-13T03:29:24;31.67;;;19.37;;
40847;SDS011;26570;50.962;5.340;2022-11-13T03:32:10;36.70;;;22.00;;
40847;SDS011;26570;50.962;5.340;2022-11-13T03:34:56;36.60;;;22.40;;
40847;SDS011;26570;50.962;5.340;2022-11-13T03:37:42;30.27;;;19.77;;
40847;SDS011;26570;50.962;5.340;2022-11-13T03:40:27;29.80;;;21.03;;
40847;SDS011;26570;50.962;5.340;2022-11-13T03:43:12;34.63;;;21.93;;
40847;SDS011;26570;50.962;5.340;2022-11-13T03:45:58;34.10;;;22.17;;
40847;SDS011;26570;50.962;5.340;2022-11-13T03:48:43;35.83;;;21.77;;
40847;SDS011;26570;50.962;5.340;2022-11-13T03:51:29;29.07;;;18.70;;
40847;SDS011;26570;50.962;5.340;2022-11-13T03:54:15;28.57;;;18.80;;
40847;SDS011;26570;50.962;5.340;2022-11-13T03:57:01;31.03;;;19.10;;
40847;SDS011;26570;50.962;5.340;2022-11-13T03:59:47;31.87;;;20.77;;
40847;SDS011;26570;50.962;5.340;2022-11-13T04:02:32;29.13;;;19.03;;
40847;SDS011;26570;50.962;5.340;2022-11-13T04:05:18;25.93;;;18.60;;
40847;SDS011;26570;50.962;5.340;2022-11-13T04:08:04;30.13;;;18.80;;
40847;SDS011;26570;50.962;5.340;2022-11-13T04:10:49;25.17;;;17.23;;
40847;SDS011;26570;50.962;5.340;2022-11-13T04:13:34;26.07;;;17.93;;
40847;SDS011;26570;50.962;5.340;2022-11-13T04:16:20;30.87;;;18.67;;
40847;SDS011;26570;50.962;5.340;2022-11-13T04:19:05;28.10;;;17.60;;
40847;SDS011;26570;50.962;5.340;2022-11-13T04:21:51;25.83;;;15.87;;
40847;SDS011;26570;50.962;5.340;2022-11-13T04:24:37;22.93;;;16.47;;
40847;SDS011;26570;50.962;5.340;2022-11-13T04:27:22;30.90;;;16.83;;
40847;SDS011;26570;50.962;5.340;2022-11-13T04:30:08;22.30;;;15.50;;
40847;SDS011;26570;50.962;5.340;2022-11-13T04:32:55;29.17;;;16.00;;
40847;SDS011;26570;50.962;5.340;2022-11-13T04:35:41;29.53;;;17.40;;
40847;SDS011;26570;50.962;5.340;2022-11-13T04:38:29;22.67;;;15.50;;
40847;SDS011;26570;50.962;5.340;2022-11-13T04:41:14;27.60;;;16.63;;
40847;SDS011;26570;50.962;5.340;2022-11-13T04:44:18;22.08;;;15.88;;
40847;SDS011;26570;50.962;5.340;2022-11-13T04:47:04;26.67;;;16.47;;
40847;SDS011;26570;50.962;5.340;2022-11-13T04:49:49;28.60;;;16.83;;
40847;SDS011;26570;50.962;5.340;2022-11-13T04:52:34;26.80;;;18.47;;
40847;SDS011;26570;50.962;5.340;2022-11-13T04:55:20;23.67;;;17.37;;
40847;SDS011;26570;50.962;5.340;2022-11-13T04:58:05;22.90;;;16.07;;
40847;SDS011;26570;50.962;5.340;2022-11-13T05:00:50;25.67;;;17.13;;
40847;SDS011;26570;50.962;5.340;2022-11-13T05:03:36;25.73;;;17.30;;
40847;SDS011;26570;50.962;5.340;2022-11-13T05:06:22;25.60;;;16.83;;
40847;SDS011;26570;50.962;5.340;2022-11-13T05:09:09;30.67;;;18.57;;
40847;SDS011;26570;50.962;5.340;2022-11-13T05:11:55;25.50;;;16.20;;
40847;SDS011;26570;50.962;5.340;2022-11-13T05:14:41;27.77;;;14.27;;
40847;SDS011;26570;50.962;5.340;2022-11-13T05:17:27;13.83;;;11.23;;
40847;SDS011;26570;50.962;5.340;2022-11-13T05:20:11;18.57;;;13.60;;
40847;SDS011;26570;50.962;5.340;2022-11-13T05:22:58;58.03;;;14.53;;
40847;SDS011;26570;50.962;5.340;2022-11-13T05:25:43;19.07;;;13.07;;
40847;SDS011;26570;50.962;5.340;2022-11-13T05:28:28;26.17;;;15.57;;
40847;SDS011;26570;50.962;5.340;2022-11-13T05:31:15;15.93;;;12.23;;
40847;SDS011;26570;50.962;5.340;2022-11-13T05:34:04;15.67;;;11.23;;
40847;SDS011;26570;50.962;5.340;2022-11-13T05:36:50;14.70;;;10.77;;
40847;SDS011;26570;50.962;5.340;2022-11-13T05:39:36;28.63;;;12.27;;
40847;SDS011;26570;50.962;5.340;2022-11-13T05:42:21;50.27;;;10.37;;
40847;SDS011;26570;50.962;5.340;2022-11-13T05:45:07;17.47;;;11.83;;
40847;SDS011;26570;50.962;5.340;2022-11-13T05:47:53;70.00;;;12.70;;
40847;SDS011;26570;50.962;5.340;2022-11-13T05:50:39;14.67;;;9.43;;
40847;SDS011;26570;50.962;5.340;2022-11-13T05:53:32;17.00;;;12.43;;
40847;SDS011;26570;50.962;5.340;2022-11-13T05:56:20;15.13;;;11.57;;
40847;SDS011;26570;50.962;5.340;2022-11-13T05:59:08;23.97;;;13.93;;
40847;SDS011;26570;50.962;5.340;2022-11-13T06:01:53;40.43;;;14.57;;
40847;SDS011;26570;50.962;5.340;2022-11-13T06:04:38;23.03;;;12.80;;
40847;SDS011;26570;50.962;5.340;2022-11-13T06:07:24;14.47;;;10.30;;
40847;SDS011;26570;50.962;5.340;2022-11-13T06:10:10;23.37;;;13.50;;
40847;SDS011;26570;50.962;5.340;2022-11-13T06:12:56;16.37;;;12.10;;
40847;SDS011;26570;50.962;5.340;2022-11-13T06:15:41;18.73;;;12.53;;
40847;SDS011;26570;50.962;5.340;2022-11-13T06:18:27;14.77;;;11.60;;
40847;SDS011;26570;50.962;5.340;2022-11-13T06:24:01;19.93;;;14.00;;
40847;SDS011;26570;50.962;5.340;2022-11-13T06:26:47;27.40;;;16.90;;
40847;SDS011;26570;50.962;5.340;2022-11-13T06:29:32;23.03;;;16.17;;
40847;SDS011;26570;50.962;5.340;2022-11-13T06:32:19;24.83;;;16.20;;
40847;SDS011;26570;50.962;5.340;2022-11-13T06:35:05;26.87;;;17.63;;
40847;SDS011;26570;50.962;5.340;2022-11-13T06:37:50;24.13;;;14.63;;
40847;SDS011;26570;50.962;5.340;2022-11-13T06:40:38;29.53;;;17.90;;
40847;SDS011;26570;50.962;5.340;2022-11-13T06:43:24;25.53;;;15.17;;
40847;SDS011;26570;50.962;5.340;2022-11-13T06:46:14;29.00;;;17.70;;
40847;SDS011;26570;50.962;5.340;2022-11-13T06:51:50;23.83;;;15.60;;
40847;SDS011;26570;50.962;5.340;2022-11-13T06:54:35;32.97;;;18.40;;
40847;SDS011;26570;50.962;5.340;2022-11-13T06:57:22;32.90;;;20.00;;
40847;SDS011;26570;50.962;5.340;2022-11-13T07:00:08;30.97;;;18.53;;
40847;SDS011;26570;50.962;5.340;2022-11-13T07:02:54;27.50;;;18.40;;
40847;SDS011;26570;50.962;5.340;2022-11-13T07:05:39;28.33;;;16.70;;
40847;SDS011;26570;50.962;5.340;2022-11-13T07:08:25;30.57;;;18.40;;
40847;SDS011;26570;50.962;5.340;2022-11-13T07:11:15;37.23;;;21.43;;
40847;SDS011;26570;50.962;5.340;2022-11-13T07:14:02;30.73;;;18.33;;
40847;SDS011;26570;50.962;5.340;2022-11-13T07:16:48;28.77;;;18.00;;
40847;SDS011;26570;50.962;5.340;2022-11-13T07:19:34;36.13;;;20.90;;
40847;SDS011;26570;50.962;5.340;2022-11-13T07:22:20;37.43;;;22.30;;
40847;SDS011;26570;50.962;5.340;2022-11-13T07:25:06;36.43;;;22.53;;
40847;SDS011;26570;50.962;5.340;2022-11-13T07:27:52;29.80;;;18.53;;
40847;SDS011;26570;50.962;5.340;2022-11-13T07:30:41;28.63;;;18.20;;
40847;SDS011;26570;50.962;5.340;2022-11-13T07:33:26;34.47;;;20.97;;
40847;SDS011;26570;50.962;5.340;2022-11-13T07:36:12;34.90;;;21.43;;
40847;SDS011;26570;50.962;5.340;2022-11-13T07:38:56;32.30;;;19.33;;
40847;SDS011;26570;50.962;5.340;2022-11-13T07:41:42;37.77;;;21.13;;
40847;SDS011;26570;50.962;5.340;2022-11-13T07:44:27;33.97;;;22.80;;
40847;SDS011;26570;50.962;5.340;2022-11-13T07:47:12;36.73;;;22.03;;
40847;SDS011;26570;50.962;5.340;2022-11-13T07:49:57;35.83;;;22.23;;
40847;SDS011;26570;50.962;5.340;2022-11-13T07:52:42;35.40;;;21.80;;
40847;SDS011;26570;50.962;5.340;2022-11-13T07:55:27;39.27;;;23.17;;
40847;SDS011;26570;50.962;5.340;2022-11-13T07:58:24;37.28;;;21.75;;
40847;SDS011;26570;50.962;5.340;2022-11-13T08:01:09;54.20;;;24.40;;
40847;SDS011;26570;50.962;5.340;2022-11-13T08:03:54;49.50;;;26.10;;
40847;SDS011;26570;50.962;5.340;2022-11-13T08:06:39;51.93;;;28.60;;
40847;SDS011;26570;50.962;5.340;2022-11-13T08:09:24;52.73;;;29.43;;
40847;SDS011;26570;50.962;5.340;2022-11-13T08:12:09;71.03;;;34.63;;
40847;SDS011;26570;50.962;5.340;2022-11-13T08:14:56;63.43;;;35.83;;
40847;SDS011;26570;50.962;5.340;2022-11-13T08:17:41;57.20;;;33.63;;
40847;SDS011;26570;50.962;5.340;2022-11-13T08:20:26;65.70;;;39.07;;
40847;SDS011;26570;50.962;5.340;2022-11-13T08:23:13;64.80;;;36.90;;
40847;SDS011;26570;50.962;5.340;2022-11-13T08:26:01;56.20;;;33.63;;
40847;SDS011;26570;50.962;5.340;2022-11-13T08:28:47;63.13;;;35.87;;
40847;SDS011;26570;50.962;5.340;2022-11-13T08:31:32;67.83;;;37.67;;
40847;SDS011;26570;50.962;5.340;2022-11-13T08:34:17;61.70;;;36.40;;
40847;SDS011;26570;50.962;5.340;2022-11-13T08:37:03;63.97;;;38.03;;
40847;SDS011;26570;50.962;5.340;2022-11-13T08:39:48;69.80;;;40.30;;
40847;SDS011;26570;50.962;5.340;2022-11-13T08:42:34;63.67;;;38.07;;
40847;SDS011;26570;50.962;5.340;2022-11-13T08:45:30;59.50;;;37.97;;
40847;SDS011;26570;50.962;5.340;2022-11-13T08:51:10;61.63;;;37.17;;
40847;SDS011;26570;50.962;5.340;2022-11-13T08:53:56;60.03;;;38.33;;
40847;SDS011;26570;50.962;5.340;2022-11-13T08:56:45;60.87;;;37.83;;
40847;SDS011;26570;50.962;5.340;2022-11-13T08:59:31;59.37;;;37.30;;
40847;SDS011;26570;50.962;5.340;2022-11-13T09:02:16;62.43;;;38.03;;
40847;SDS011;26570;50.962;5.340;2022-11-13T09:05:02;61.87;;;35.27;;
40847;SDS011;26570;50.962;5.340;2022-11-13T09:07:47;55.77;;;37.33;;
40847;SDS011;26570;50.962;5.340;2022-11-13T09:10:32;59.50;;;38.63;;
40847;SDS011;26570;50.962;5.340;2022-11-13T09:13:17;59.57;;;38.23;;
40847;SDS011;26570;50.962;5.340;2022-11-13T09:16:03;56.53;;;38.90;;
40847;SDS011;26570;50.962;5.340;2022-11-13T09:18:48;59.13;;;39.80;;
40847;SDS011;26570;50.962;5.340;2022-11-13T09:21:34;51.33;;;36.90;;
40847;SDS011;26570;50.962;5.340;2022-11-13T09:24:18;51.37;;;35.33;;
40847;SDS011;26570;50.962;5.340;2022-11-13T09:27:14;55.27;;;36.63;;
40847;SDS011;26570;50.962;5.340;2022-11-13T09:30:12;50.22;;;33.67;;
40847;SDS011;26570;50.962;5.340;2022-11-13T09:32:58;54.47;;;34.80;;
40847;SDS011;26570;50.962;5.340;2022-11-13T09:35:44;47.67;;;31.90;;
40847;SDS011;26570;50.962;5.340;2022-11-13T09:38:29;44.53;;;30.67;;
40847;SDS011;26570;50.962;5.340;2022-11-13T09:41:58;40.57;;;28.43;;
40847;SDS011;26570;50.962;5.340;2022-11-13T09:44:40;40.00;;;27.63;;
40847;SDS011;26570;50.962;5.340;2022-11-13T09:47:30;33.03;;;24.55;;
40847;SDS011;26570;50.962;5.340;2022-11-13T09:50:22;24.87;;;20.30;;
40847;SDS011;26570;50.962;5.340;2022-11-13T09:53:13;28.40;;;18.30;;
40847;SDS011;26570;50.962;5.340;2022-11-13T09:56:05;27.60;;;17.13;;
40847;SDS011;26570;50.962;5.340;2022-11-13T10:02:16;20.88;;;14.15;;
40847;SDS011;26570;50.962;5.340;2022-11-13T10:14:38;17.83;;;11.43;;
40847;SDS011;26570;50.962;5.340;2022-11-13T10:20:35;11.87;;;9.97;;
40847;SDS011;26570;50.962;5.340;2022-11-13T10:23:27;12.93;;;8.40;;
40847;SDS011;26570;50.962;5.340;2022-11-13T10:26:17;11.33;;;9.33;;
40847;SDS011;26570;50.962;5.340;2022-11-13T10:32:24;15.50;;;8.73;;
40847;SDS011;26570;50.962;5.340;2022-11-13T10:41:18;12.52;;;8.10;;
40847;SDS011;26570;50.962;5.340;2022-11-13T10:47:02;14.03;;;9.30;;
40847;SDS011;26570;50.962;5.340;2022-11-13T10:49:48;12.67;;;8.57;;
40847;SDS011;26570;50.962;5.340;2022-11-13T10:52:34;12.00;;;8.00;;
40847;SDS011;26570;50.962;5.340;2022-11-13T10:55:38;9.23;;;8.27;;
40847;SDS011;26570;50.962;5.340;2022-11-13T10:58:24;10.07;;;6.50;;
40847;SDS011;26570;50.962;5.340;2022-11-13T11:01:15;9.07;;;6.27;;
40847;SDS011;26570;50.962;5.340;2022-11-13T11:04:10;9.97;;;6.60;;
40847;SDS011;26570;50.962;5.340;2022-11-13T11:07:17;10.85;;;6.93;;
40847;SDS011;26570;50.962;5.340;2022-11-13T11:10:06;7.30;;;6.22;;
40847;SDS011;26570;50.962;5.340;2022-11-13T11:13:21;7.87;;;5.67;;
40847;SDS011;26570;50.962;5.340;2022-11-13T11:16:07;10.43;;;5.90;;
40847;SDS011;26570;50.962;5.340;2022-11-13T11:18:59;8.33;;;5.93;;
40847;SDS011;26570;50.962;5.340;2022-11-13T11:21:48;9.33;;;5.43;;
40847;SDS011;26570;50.962;5.340;2022-11-13T11:24:38;8.37;;;5.33;;
40847;SDS011;26570;50.962;5.340;2022-11-13T11:27:49;10.93;;;5.73;;
40847;SDS011;26570;50.962;5.340;2022-11-13T11:30:50;8.37;;;5.20;;
40847;SDS011;26570;50.962;5.340;2022-11-13T11:33:56;7.63;;;5.00;;
40847;SDS011;26570;50.962;5.340;2022-11-13T11:40:28;6.90;;;4.33;;
40847;SDS011;26570;50.962;5.340;2022-11-13T11:43:19;6.13;;;4.60;;
40847;SDS011;26570;50.962;5.340;2022-11-13T11:46:19;7.63;;;4.83;;
40847;SDS011;26570;50.962;5.340;2022-11-13T11:49:07;9.47;;;5.10;;
40847;SDS011;26570;50.962;5.340;2022-11-13T11:52:55;8.07;;;5.07;;
40847;SDS011;26570;50.962;5.340;2022-11-13T11:58:37;9.73;;;4.37;;
40847;SDS011;26570;50.962;5.340;2022-11-13T12:04:41;4.90;;;3.33;;
40847;SDS011;26570;50.962;5.340;2022-11-13T12:08:01;6.33;;;3.10;;
40847;SDS011;26570;50.962;5.340;2022-11-13T12:21:02;4.37;;;2.50;;
40847;SDS011;26570;50.962;5.340;2022-11-13T12:24:10;4.40;;;2.00;;
40847;SDS011;26570;50.962;5.340;2022-11-13T12:30:18;4.00;;;1.60;;
40847;SDS011;26570;50.962;5.340;2022-11-13T12:33:10;2.90;;;1.20;;
40847;SDS011;26570;50.962;5.340;2022-11-13T12:36:06;3.03;;;1.37;;
40847;SDS011;26570;50.962;5.340;2022-11-13T12:38:59;2.83;;;1.50;;
40847;SDS011;26570;50.962;5.340;2022-11-13T12:44:48;3.97;;;1.37;;
40847;SDS011;26570;50.962;5.340;2022-11-13T12:47:41;3.77;;;2.00;;
40847;SDS011;26570;50.962;5.340;2022-11-13T12:50:27;6.20;;;2.00;;
40847;SDS011;26570;50.962;5.340;2022-11-13T12:53:22;4.47;;;1.93;;
40847;SDS011;26570;50.962;5.340;2022-11-13T13:11:24;2.93;;;1.70;;
40847;SDS011;26570;50.962;5.340;2022-11-13T13:14:34;3.50;;;1.40;;
40847;SDS011;26570;50.962;5.340;2022-11-13T13:17:44;5.13;;;1.60;;
40847;SDS011;26570;50.962;5.340;2022-11-13T13:20:31;6.40;;;1.53;;
40847;SDS011;26570;50.962;5.340;2022-11-13T13:23:25;3.30;;;1.53;;
40847;SDS011;26570;50.962;5.340;2022-11-13T13:26:28;3.27;;;1.63;;
40847;SDS011;26570;50.962;5.340;2022-11-13T13:29:26;5.10;;;1.40;;
40847;SDS011;26570;50.962;5.340;2022-11-13T13:41:01;2.90;;;1.53;;
40847;SDS011;26570;50.962;5.340;2022-11-13T13:46:45;4.70;;;1.50;;
40847;SDS011;26570;50.962;5.340;2022-11-13T13:49:30;4.07;;;1.95;;
40847;SDS011;26570;50.962;5.340;2022-11-13T13:52:17;3.00;;;1.90;;
40847;SDS011;26570;50.962;5.340;2022-11-13T13:55:15;3.67;;;2.43;;
40847;SDS011;26570;50.962;5.340;2022-11-13T13:58:08;3.38;;;2.13;;
40847;SDS011;26570;50.962;5.340;2022-11-13T14:00:57;2.67;;;1.47;;
40847;SDS011;26570;50.962;5.340;2022-11-13T14:03:43;3.23;;;1.73;;
40847;SDS011;26570;50.962;5.340;2022-11-13T14:06:28;3.33;;;1.60;;
40847;SDS011;26570;50.962;5.340;2022-11-13T14:09:20;4.90;;;1.80;;
40847;SDS011;26570;50.962;5.340;2022-11-13T14:12:15;3.03;;;1.42;;
40847;SDS011;26570;50.962;5.340;2022-11-13T14:15:04;3.73;;;1.43;;
40847;SDS011;26570;50.962;5.340;2022-11-13T14:18:17;2.33;;;1.37;;
40847;SDS011;26570;50.962;5.340;2022-11-13T14:21:04;3.80;;;1.37;;
40847;SDS011;26570;50.962;5.340;2022-11-13T14:23:55;4.55;;;1.20;;
40847;SDS011;26570;50.962;5.340;2022-11-13T14:26:43;4.70;;;1.17;;
40847;SDS011;26570;50.962;5.340;2022-11-13T14:29:35;2.97;;;0.90;;
40847;SDS011;26570;50.962;5.340;2022-11-13T14:35:07;5.50;;;0.90;;
40847;SDS011;26570;50.962;5.340;2022-11-13T14:38:01;3.00;;;0.80;;
40847;SDS011;26570;50.962;5.340;2022-11-13T14:40:45;1.97;;;0.80;;
40847;SDS011;26570;50.962;5.340;2022-11-13T14:43:31;1.70;;;0.80;;
40847;SDS011;26570;50.962;5.340;2022-11-13T14:46:30;3.70;;;0.80;;
40847;SDS011;26570;50.962;5.340;2022-11-13T14:49:33;2.03;;;0.80;;
40847;SDS011;26570;50.962;5.340;2022-11-13T14:52:23;2.80;;;0.80;;
40847;SDS011;26570;50.962;5.340;2022-11-13T14:55:21;2.43;;;0.77;;
40847;SDS011;26570;50.962;5.340;2022-11-13T14:58:11;2.67;;;0.70;;
40847;SDS011;26570;50.962;5.340;2022-11-13T15:01:16;1.97;;;0.80;;
40847;SDS011;26570;50.962;5.340;2022-11-13T15:04:06;1.23;;;0.53;;
40847;SDS011;26570;50.962;5.340;2022-11-13T15:06:51;2.00;;;0.50;;
40847;SDS011;26570;50.962;5.340;2022-11-13T15:09:38;1.20;;;0.50;;
40847;SDS011;26570;50.962;5.340;2022-11-13T15:12:23;1.20;;;0.50;;
40847;SDS011;26570;50.962;5.340;2022-11-13T15:15:11;1.70;;;0.60;;
40847;SDS011;26570;50.962;5.340;2022-11-13T15:17:57;3.40;;;0.60;;
40847;SDS011;26570;50.962;5.340;2022-11-13T15:20:42;1.50;;;0.60;;
40847;SDS011;26570;50.962;5.340;2022-11-13T15:23:29;2.97;;;0.87;;
40847;SDS011;26570;50.962;5.340;2022-11-13T15:26:14;1.90;;;0.90;;
40847;SDS011;26570;50.962;5.340;2022-11-13T15:28:59;2.33;;;1.00;;
40847;SDS011;26570;50.962;5.340;2022-11-13T15:31:44;4.10;;;1.00;;
40847;SDS011;26570;50.962;5.340;2022-11-13T15:34:29;5.10;;;1.20;;
40847;SDS011;26570;50.962;5.340;2022-11-13T15:37:15;4.03;;;1.17;;
40847;SDS011;26570;50.962;5.340;2022-11-13T15:40:03;2.10;;;1.00;;
40847;SDS011;26570;50.962;5.340;2022-11-13T15:42:48;2.17;;;1.10;;
40847;SDS011;26570;50.962;5.340;2022-11-13T15:45:33;4.07;;;1.13;;
40847;SDS011;26570;50.962;5.340;2022-11-13T15:48:17;3.43;;;1.17;;
40847;SDS011;26570;50.962;5.340;2022-11-13T15:51:02;3.43;;;1.63;;
40847;SDS011;26570;50.962;5.340;2022-11-13T15:53:48;5.07;;;1.50;;
40847;SDS011;26570;50.962;5.340;2022-11-13T15:56:39;3.47;;;1.47;;
40847;SDS011;26570;50.962;5.340;2022-11-13T15:59:25;4.73;;;2.10;;
40847;SDS011;26570;50.962;5.340;2022-11-13T16:02:09;4.97;;;2.90;;
40847;SDS011;26570;50.962;5.340;2022-11-13T16:04:55;7.50;;;2.57;;
40847;SDS011;26570;50.962;5.340;2022-11-13T16:07:39;12.83;;;2.67;;
40847;SDS011;26570;50.962;5.340;2022-11-13T16:10:24;3.33;;;2.10;;
40847;SDS011;26570;50.962;5.340;2022-11-13T16:13:08;5.80;;;2.90;;
40847;SDS011;26570;50.962;5.340;2022-11-13T16:15:55;6.20;;;2.53;;
40847;SDS011;26570;50.962;5.340;2022-11-13T16:18:41;4.83;;;2.50;;
40847;SDS011;26570;50.962;5.340;2022-11-13T16:21:26;3.97;;;2.40;;
40847;SDS011;26570;50.962;5.340;2022-11-13T16:24:36;5.13;;;2.33;;
40847;SDS011;26570;50.962;5.340;2022-11-13T16:27:28;2.73;;;2.13;;
40847;SDS011;26570;50.962;5.340;2022-11-13T16:30:15;9.45;;;2.13;;
40847;SDS011;26570;50.962;5.340;2022-11-13T16:33:03;3.27;;;1.93;;
40847;SDS011;26570;50.962;5.340;2022-11-13T16:35:50;4.57;;;2.30;;
40847;SDS011;26570;50.962;5.340;2022-11-13T16:38:35;5.30;;;2.30;;
40847;SDS011;26570;50.962;5.340;2022-11-13T16:41:21;24.63;;;12.83;;
40847;SDS011;26570;50.962;5.340;2022-11-13T16:44:07;12.10;;;4.53;;
40847;SDS011;26570;50.962;5.340;2022-11-13T16:46:52;47.67;;;30.83;;
40847;SDS011;26570;50.962;5.340;2022-11-13T16:49:37;28.30;;;18.73;;
40847;SDS011;26570;50.962;5.340;2022-11-13T16:52:22;35.30;;;21.47;;
40847;SDS011;26570;50.962;5.340;2022-11-13T16:55:09;23.60;;;14.53;;
40847;SDS011;26570;50.962;5.340;2022-11-13T16:57:56;13.33;;;6.70;;
40847;SDS011;26570;50.962;5.340;2022-11-13T17:00:41;18.63;;;10.83;;
40847;SDS011;26570;50.962;5.340;2022-11-13T17:03:26;15.70;;;6.40;;
40847;SDS011;26570;50.962;5.340;2022-11-13T17:06:14;18.67;;;7.90;;
40847;SDS011;26570;50.962;5.340;2022-11-13T17:09:08;8.23;;;5.10;;
40847;SDS011;26570;50.962;5.340;2022-11-13T17:11:54;14.57;;;5.57;;
40847;SDS011;26570;50.962;5.340;2022-11-13T17:14:40;13.83;;;5.10;;
40847;SDS011;26570;50.962;5.340;2022-11-13T17:17:25;9.50;;;5.57;;
40847;SDS011;26570;50.962;5.340;2022-11-13T17:20:10;10.80;;;5.10;;
40847;SDS011;26570;50.962;5.340;2022-11-13T17:22:56;12.43;;;5.57;;
40847;SDS011;26570;50.962;5.340;2022-11-13T17:25:41;13.97;;;6.13;;
40847;SDS011;26570;50.962;5.340;2022-11-13T17:28:27;17.93;;;9.87;;
40847;SDS011;26570;50.962;5.340;2022-11-13T17:31:12;14.77;;;8.73;;
40847;SDS011;26570;50.962;5.340;2022-11-13T17:33:57;18.27;;;9.33;;
40847;SDS011;26570;50.962;5.340;2022-11-13T17:36:42;22.80;;;10.47;;
40847;SDS011;26570;50.962;5.340;2022-11-13T17:39:27;27.90;;;11.23;;
40847;SDS011;26570;50.962;5.340;2022-11-13T17:42:13;24.97;;;12.17;;
40847;SDS011;26570;50.962;5.340;2022-11-13T17:45:22;23.47;;;10.37;;
40847;SDS011;26570;50.962;5.340;2022-11-13T17:48:06;37.03;;;13.77;;
40847;SDS011;26570;50.962;5.340;2022-11-13T17:50:55;37.50;;;12.73;;
40847;SDS011;26570;50.962;5.340;2022-11-13T17:53:41;28.50;;;13.57;;
40847;SDS011;26570;50.962;5.340;2022-11-13T17:56:27;30.73;;;14.63;;
40847;SDS011;26570;50.962;5.340;2022-11-13T17:59:12;23.57;;;13.47;;
40847;SDS011;26570;50.962;5.340;2022-11-13T18:01:57;28.47;;;13.07;;
40847;SDS011;26570;50.962;5.340;2022-11-13T18:04:42;25.00;;;12.63;;
40847;SDS011;26570;50.962;5.340;2022-11-13T18:07:27;24.20;;;12.53;;